Time;durP1;ratioP1;P1;durP2;ratioP2;P2;SDS_P1;SDS_P2;PMS_P1;PMS_P2;Temp;Humidity;BMP_temperature;BMP_pressure;BME280_temperature;BME280_humidity;BME280_pressure;Samples;Min_cycle;Max_cycle;Signal;HPM_P1;HPM_P2
2023/04/26 00:01:34;;;;;;;1.55;0.50;;;;;;;;;;4943447;28;20632;-78
2023/04/26 00:04:01;;;;;;;2.53;1.05;;;;;;;;;;4950216;28;20023;-79
2023/04/26 00:06:27;;;;;;;0.98;0.60;;;;;;;;;;4943421;28;20390;-78
2023/04/26 00:08:53;;;;;;;1.33;0.65;;;;;;;;;;4939803;28;20026;-78
2023/04/26 00:11:19;;;;;;;1.33;0.63;;;;;;;;;;4945259;28;20058;-78
2023/04/26 00:13:45;;;;;;;0.60;0.50;;;;;;;;;;4945457;28;20028;-78
2023/04/26 00:16:13;;;;;;;1.67;0.50;;;;;;;;;;4948126;28;20034;-78
2023/04/26 00:18:39;;;;;;;1.00;0.60;;;;;;;;;;4945401;28;20118;-78
2023/04/26 00:21:25;;;;;;;0.98;0.63;;;;;;;;;;4949975;28;20019;-78
2023/04/26 00:23:51;;;;;;;0.55;0.40;;;;;;;;;;4941925;28;20039;-78
2023/04/26 00:26:17;;;;;;;0.70;0.50;;;;;;;;;;4945497;28;20035;-78
2023/04/26 00:28:43;;;;;;;0.88;0.60;;;;;;;;;;4945098;28;20034;-78
2023/04/26 00:31:14;;;;;;;1.35;0.50;;;;;;;;;;4941823;28;20552;-78
2023/04/26 00:33:40;;;;;;;1.08;0.90;;;;;;;;;;4948217;28;20090;-78
2023/04/26 00:36:06;;;;;;;0.47;0.40;;;;;;;;;;4941199;28;20036;-79
2023/04/26 00:38:32;;;;;;;0.70;0.60;;;;;;;;;;4945360;28;20585;-78
2023/04/26 00:40:58;;;;;;;0.50;0.50;;;;;;;;;;4939506;28;20036;-78
2023/04/26 00:43:24;;;;;;;1.70;0.82;;;;;;;;;;4938184;28;20035;-78
2023/04/26 00:45:51;;;;;;;0.80;0.63;;;;;;;;;;4946656;28;20513;-78
2023/04/26 00:48:17;;;;;;;3.90;0.77;;;;;;;;;;4940493;28;20046;-78
2023/04/26 00:50:43;;;;;;;1.25;0.73;;;;;;;;;;4945056;28;20111;-78
2023/04/26 00:53:09;;;;;;;1.05;0.60;;;;;;;;;;4949243;28;20027;-78
2023/04/26 00:55:35;;;;;;;1.60;0.60;;;;;;;;;;4949802;28;20031;-78
2023/04/26 00:58:01;;;;;;;1.45;0.70;;;;;;;;;;4943328;28;20106;-77
2023/04/26 01:00:28;;;;;;;0.50;0.50;;;;;;;;;;4945007;28;20164;-78
2023/04/26 01:02:54;;;;;;;1.08;0.45;;;;;;;;;;4949352;28;20035;-78
2023/04/26 01:05:20;;;;;;;5.38;0.52;;;;;;;;;;4947943;28;20051;-78
2023/04/26 01:07:46;;;;;;;0.82;0.50;;;;;;;;;;4949873;28;20054;-78
2023/04/26 01:10:12;;;;;;;0.40;0.40;;;;;;;;;;4945188;28;20031;-78
2023/04/26 01:12:39;;;;;;;1.77;0.65;;;;;;;;;;4947485;28;20036;-78
2023/04/26 01:15:05;;;;;;;0.50;0.50;;;;;;;;;;4942801;28;20038;-79
2023/04/26 01:17:31;;;;;;;0.40;0.40;;;;;;;;;;4939464;28;20033;-78
2023/04/26 01:19:57;;;;;;;2.30;0.60;;;;;;;;;;4947818;28;20486;-78
2023/04/26 01:22:23;;;;;;;0.40;0.40;;;;;;;;;;4947851;28;20034;-79
2023/04/26 01:24:50;;;;;;;0.85;0.52;;;;;;;;;;4943516;28;20028;-79
2023/04/26 01:27:16;;;;;;;1.30;0.50;;;;;;;;;;4944801;28;20035;-78
2023/04/26 01:29:42;;;;;;;0.63;0.57;;;;;;;;;;4936892;28;20131;-78
2023/04/26 01:32:08;;;;;;;0.32;0.32;;;;;;;;;;4938106;28;20034;-78
2023/04/26 01:34:36;;;;;;;0.38;0.38;;;;;;;;;;4947637;28;20023;-78
2023/04/26 01:37:02;;;;;;;0.50;0.50;;;;;;;;;;4947246;28;20019;-77
2023/04/26 01:39:28;;;;;;;0.90;0.43;;;;;;;;;;4948414;28;20032;-76
2023/04/26 01:41:54;;;;;;;0.73;0.50;;;;;;;;;;4942098;28;20022;-76
2023/04/26 01:44:20;;;;;;;0.57;0.47;;;;;;;;;;4941380;28;20031;-76
2023/04/26 01:46:45;;;;;;;0.55;0.40;;;;;;;;;;4947705;28;20035;-77
2023/04/26 01:49:11;;;;;;;0.30;0.30;;;;;;;;;;4945073;28;20376;-77
2023/04/26 01:51:37;;;;;;;4.15;0.68;;;;;;;;;;4946696;28;20027;-76
2023/04/26 01:54:03;;;;;;;2.50;0.70;;;;;;;;;;4942135;28;20032;-77
2023/04/26 01:56:30;;;;;;;0.60;0.47;;;;;;;;;;4944291;28;20054;-77
2023/04/26 01:58:56;;;;;;;0.70;0.65;;;;;;;;;;4945787;28;20031;-77
2023/04/26 02:01:22;;;;;;;3.13;0.50;;;;;;;;;;4948755;28;20031;-77
2023/04/26 02:03:48;;;;;;;0.85;0.73;;;;;;;;;;4948282;28;20039;-77
2023/04/26 02:06:14;;;;;;;1.38;0.68;;;;;;;;;;4950796;28;20019;-77
2023/04/26 02:08:40;;;;;;;0.38;0.38;;;;;;;;;;4951408;28;20059;-77
2023/04/26 02:11:06;;;;;;;1.63;0.65;;;;;;;;;;4951344;28;20534;-77
2023/04/26 02:13:32;;;;;;;0.45;0.20;;;;;;;;;;4946157;28;20034;-77
2023/04/26 02:15:58;;;;;;;0.70;0.43;;;;;;;;;;4946599;28;20023;-76
2023/04/26 02:18:24;;;;;;;1.38;0.75;;;;;;;;;;4938891;28;20186;-77
2023/04/26 02:20:50;;;;;;;0.52;0.52;;;;;;;;;;4950123;28;20446;-77
2023/04/26 02:23:16;;;;;;;1.33;0.52;;;;;;;;;;4944338;28;20027;-77
2023/04/26 02:25:45;;;;;;;0.50;0.50;;;;;;;;;;4951256;28;20086;-77
2023/04/26 02:28:11;;;;;;;0.75;0.40;;;;;;;;;;4951323;28;20050;-77
2023/04/26 02:30:37;;;;;;;0.40;0.38;;;;;;;;;;4950153;28;20525;-76
2023/04/26 02:33:03;;;;;;;1.08;0.82;;;;;;;;;;4950411;28;22083;-77
2023/04/26 02:35:29;;;;;;;2.65;0.43;;;;;;;;;;4941663;28;20024;-77
2023/04/26 02:37:55;;;;;;;0.60;0.25;;;;;;;;;;4943477;28;20086;-78
2023/04/26 02:40:21;;;;;;;1.30;0.75;;;;;;;;;;4951401;28;20015;-78
2023/04/26 02:42:48;;;;;;;0.30;0.30;;;;;;;;;;4949364;28;20042;-77
2023/04/26 02:45:14;;;;;;;0.55;0.50;;;;;;;;;;4923959;29;20035;-76
2023/04/26 02:47:40;;;;;;;5.47;0.70;;;;;;;;;;4944562;28;20046;-77
2023/04/26 02:50:06;;;;;;;0.82;0.80;;;;;;;;;;4943734;28;20028;-77
2023/04/26 02:52:33;;;;;;;0.65;0.50;;;;;;;;;;4943597;28;20039;-77
2023/04/26 02:55:00;;;;;;;1.48;0.38;;;;;;;;;;4941806;28;20023;-77
2023/04/26 02:57:26;;;;;;;0.82;0.57;;;;;;;;;;4951829;28;20025;-77
2023/04/26 02:59:52;;;;;;;1.33;0.40;;;;;;;;;;4944120;28;20479;-76
2023/04/26 03:02:18;;;;;;;2.50;0.75;;;;;;;;;;4939396;28;20034;-77
2023/04/26 03:04:45;;;;;;;0.30;0.30;;;;;;;;;;4934704;28;20542;-77
2023/04/26 03:07:11;;;;;;;0.57;0.40;;;;;;;;;;4941046;28;20042;-76
2023/04/26 03:09:37;;;;;;;0.63;0.52;;;;;;;;;;4951093;28;20394;-77
2023/04/26 03:12:04;;;;;;;1.13;0.85;;;;;;;;;;4943333;28;20023;-77
2023/04/26 03:14:30;;;;;;;1.05;0.57;;;;;;;;;;4934275;28;20027;-78
2023/04/26 03:16:56;;;;;;;0.20;0.20;;;;;;;;;;4945634;28;20031;-78
2023/04/26 03:19:22;;;;;;;0.30;0.30;;;;;;;;;;4931617;29;20020;-78
2023/04/26 03:21:48;;;;;;;0.85;0.50;;;;;;;;;;4950278;28;20803;-77
2023/04/26 03:24:13;;;;;;;0.28;0.28;;;;;;;;;;4949202;28;20031;-77
2023/04/26 03:26:40;;;;;;;0.82;0.30;;;;;;;;;;4939365;28;20035;-77
2023/04/26 03:29:06;;;;;;;0.52;0.52;;;;;;;;;;4944033;29;20054;-77
2023/04/26 03:31:32;;;;;;;1.75;0.45;;;;;;;;;;4943359;28;20202;-77
2023/04/26 03:33:58;;;;;;;0.30;0.30;;;;;;;;;;4947572;28;20114;-77
2023/04/26 03:36:24;;;;;;;0.90;0.65;;;;;;;;;;4948877;28;20372;-77
2023/04/26 03:38:50;;;;;;;0.50;0.35;;;;;;;;;;4947996;28;20023;-74
2023/04/26 03:41:16;;;;;;;1.38;0.60;;;;;;;;;;4947685;28;20022;-76
2023/04/26 03:43:42;;;;;;;1.63;0.50;;;;;;;;;;4940565;28;20103;-76
2023/04/26 03:46:08;;;;;;;4.00;0.50;;;;;;;;;;4945988;28;20089;-76
2023/04/26 03:48:34;;;;;;;0.68;0.30;;;;;;;;;;4941997;28;20094;-76
2023/04/26 03:51:01;;;;;;;0.30;0.30;;;;;;;;;;4946507;28;20367;-76
2023/04/26 03:53:27;;;;;;;1.67;0.70;;;;;;;;;;4947705;28;20119;-76
2023/04/26 03:55:53;;;;;;;7.13;0.30;;;;;;;;;;4950148;28;20020;-75
2023/04/26 03:58:19;;;;;;;0.43;0.32;;;;;;;;;;4939430;29;20023;-76
2023/04/26 04:00:45;;;;;;;0.20;0.20;;;;;;;;;;4930705;29;20027;-75
2023/04/26 04:03:11;;;;;;;3.70;1.20;;;;;;;;;;4934909;29;20098;-77
2023/04/26 04:05:37;;;;;;;0.40;0.40;;;;;;;;;;4950132;28;20066;-76
2023/04/26 04:08:03;;;;;;;0.90;0.50;;;;;;;;;;4940687;28;20024;-75
2023/04/26 04:10:29;;;;;;;0.40;0.40;;;;;;;;;;4948936;28;20039;-76
2023/04/26 04:12:55;;;;;;;1.02;0.57;;;;;;;;;;4949957;28;20042;-76
2023/04/26 04:15:21;;;;;;;0.30;0.30;;;;;;;;;;4948357;28;20058;-77
2023/04/26 04:17:47;;;;;;;0.45;0.35;;;;;;;;;;4949529;28;20024;-76
2023/04/26 04:20:13;;;;;;;0.63;0.63;;;;;;;;;;4948893;28;20482;-76
2023/04/26 04:22:39;;;;;;;0.70;0.70;;;;;;;;;;4939993;28;20050;-76
2023/04/26 04:25:09;;;;;;;0.68;0.38;;;;;;;;;;4944247;28;20036;-76
2023/04/26 04:27:35;;;;;;;0.55;0.50;;;;;;;;;;4945252;28;20211;-76
2023/04/26 04:30:02;;;;;;;0.70;0.52;;;;;;;;;;4949290;28;20065;-75
2023/04/26 04:32:28;;;;;;;2.35;0.77;;;;;;;;;;4945403;28;20114;-76
2023/04/26 04:34:54;;;;;;;2.13;0.63;;;;;;;;;;4942805;28;20540;-77
2023/04/26 04:37:21;;;;;;;1.10;0.70;;;;;;;;;;4936958;28;20034;-76
2023/04/26 04:39:47;;;;;;;0.20;0.20;;;;;;;;;;4950387;28;20042;-77
2023/04/26 04:42:14;;;;;;;7.45;0.47;;;;;;;;;;4943148;28;20027;-77
2023/04/26 04:44:40;;;;;;;1.10;0.40;;;;;;;;;;4946849;28;20027;-79
2023/04/26 04:47:06;;;;;;;1.42;0.63;;;;;;;;;;4945898;28;20390;-81
2023/04/26 04:49:32;;;;;;;0.80;0.60;;;;;;;;;;4948602;28;20030;-79
2023/04/26 04:51:58;;;;;;;0.43;0.35;;;;;;;;;;4948592;28;20038;-80
2023/04/26 04:54:24;;;;;;;0.30;0.30;;;;;;;;;;4946691;28;20031;-80
2023/04/26 04:56:50;;;;;;;2.67;0.80;;;;;;;;;;4943299;28;20378;-84
2023/04/26 04:59:16;;;;;;;0.30;0.30;;;;;;;;;;4947164;28;20074;-83
2023/04/26 05:01:42;;;;;;;0.30;0.30;;;;;;;;;;4942479;28;20679;-82
2023/04/26 05:04:08;;;;;;;1.65;0.45;;;;;;;;;;4944540;28;20055;-80
2023/04/26 05:06:35;;;;;;;0.50;0.50;;;;;;;;;;4946159;28;20043;-80
2023/04/26 05:09:00;;;;;;;0.85;0.47;;;;;;;;;;4948952;28;20113;-81
2023/04/26 05:11:27;;;;;;;1.08;0.55;;;;;;;;;;4940371;28;20624;-83
2023/04/26 05:13:52;;;;;;;0.47;0.47;;;;;;;;;;4948396;28;20107;-76
2023/04/26 05:16:18;;;;;;;0.60;0.60;;;;;;;;;;4949715;28;20031;-81
2023/04/26 05:18:44;;;;;;;0.55;0.55;;;;;;;;;;4944052;28;20035;-80
2023/04/26 05:21:10;;;;;;;1.08;0.57;;;;;;;;;;4943987;28;20612;-80
2023/04/26 05:23:36;;;;;;;0.43;0.43;;;;;;;;;;4946656;28;20043;-81
2023/04/26 05:26:03;;;;;;;0.65;0.40;;;;;;;;;;4946013;28;20034;-81
2023/04/26 05:28:30;;;;;;;0.20;0.20;;;;;;;;;;4936024;29;20027;-82
2023/04/26 05:30:56;;;;;;;0.82;0.50;;;;;;;;;;4953801;28;20035;-82
2023/04/26 05:33:22;;;;;;;0.63;0.45;;;;;;;;;;4952242;28;20130;-81
2023/04/26 05:35:48;;;;;;;0.40;0.38;;;;;;;;;;4953312;28;20593;-82
2023/04/26 05:38:14;;;;;;;0.47;0.47;;;;;;;;;;4953133;28;20023;-81
2023/04/26 05:40:40;;;;;;;0.63;0.60;;;;;;;;;;4952042;28;20031;-79
2023/04/26 05:43:06;;;;;;;0.65;0.30;;;;;;;;;;4953020;28;20393;-80
2023/04/26 05:45:32;;;;;;;0.47;0.45;;;;;;;;;;4952712;28;20318;-82
2023/04/26 05:47:58;;;;;;;0.55;0.50;;;;;;;;;;4953178;28;20390;-81
2023/04/26 05:50:24;;;;;;;0.47;0.40;;;;;;;;;;4952516;28;20031;-80
2023/04/26 05:52:50;;;;;;;0.63;0.63;;;;;;;;;;4952206;28;20038;-80
2023/04/26 05:55:16;;;;;;;1.38;0.55;;;;;;;;;;4952199;28;20478;-82
2023/04/26 05:57:42;;;;;;;0.50;0.50;;;;;;;;;;4945762;28;20036;-81
2023/04/26 06:00:08;;;;;;;1.77;0.43;;;;;;;;;;4947106;28;20548;-80
2023/04/26 06:02:34;;;;;;;0.65;0.50;;;;;;;;;;4948044;28;20162;-80
2023/04/26 06:05:00;;;;;;;1.58;0.73;;;;;;;;;;4952635;28;20524;-81
2023/04/26 06:07:26;;;;;;;2.38;1.42;;;;;;;;;;4953558;28;20019;-82
2023/04/26 06:09:52;;;;;;;1.10;0.60;;;;;;;;;;4951976;28;20035;-81
2023/04/26 06:12:18;;;;;;;0.43;0.43;;;;;;;;;;4950263;28;20023;-82
2023/04/26 06:14:44;;;;;;;0.82;0.40;;;;;;;;;;4946666;28;20505;-81
2023/04/26 06:17:10;;;;;;;0.28;0.20;;;;;;;;;;4950922;28;20046;-82
2023/04/26 06:19:36;;;;;;;1.27;0.43;;;;;;;;;;4953529;28;20418;-80
2023/04/26 06:22:02;;;;;;;0.40;0.40;;;;;;;;;;4952644;28;20034;-80
2023/04/26 06:24:30;;;;;;;1.23;0.50;;;;;;;;;;4953112;28;20039;-81
2023/04/26 06:26:56;;;;;;;0.35;0.35;;;;;;;;;;4949481;28;20102;-81
2023/04/26 06:29:22;;;;;;;2.20;0.43;;;;;;;;;;4951331;28;20057;-81
2023/04/26 06:31:48;;;;;;;0.28;0.20;;;;;;;;;;4952535;28;20042;-81
2023/04/26 06:34:14;;;;;;;1.45;0.70;;;;;;;;;;4948290;28;20684;-81
2023/04/26 06:36:39;;;;;;;3.15;0.40;;;;;;;;;;4949874;28;20091;-82
2023/04/26 06:39:05;;;;;;;1.33;0.40;;;;;;;;;;4950411;28;20478;-82
2023/04/26 06:41:31;;;;;;;0.40;0.40;;;;;;;;;;4952973;28;20395;-82
2023/04/26 06:43:57;;;;;;;0.30;0.30;;;;;;;;;;4943808;28;20039;-81
2023/04/26 06:46:23;;;;;;;2.05;0.50;;;;;;;;;;4940846;28;20023;-82
2023/04/26 06:48:52;;;;;;;0.32;0.32;;;;;;;;;;4949571;28;20039;-82
2023/04/26 06:51:18;;;;;;;0.45;0.43;;;;;;;;;;4944902;28;20039;-80
2023/04/26 06:53:44;;;;;;;1.15;0.60;;;;;;;;;;4947287;28;20042;-82
2023/04/26 06:56:10;;;;;;;0.55;0.40;;;;;;;;;;4951162;28;20085;-82
2023/04/26 06:58:36;;;;;;;0.32;0.32;;;;;;;;;;4938495;29;20035;-82
2023/04/26 07:01:02;;;;;;;0.22;0.22;;;;;;;;;;4945782;28;20102;-80
2023/04/26 07:03:28;;;;;;;0.22;0.22;;;;;;;;;;4946037;28;20055;-77
2023/04/26 07:05:55;;;;;;;3.63;0.75;;;;;;;;;;4944688;28;20062;-80
2023/04/26 07:08:21;;;;;;;0.25;0.25;;;;;;;;;;4947303;28;20031;-85
2023/04/26 07:10:47;;;;;;;0.32;0.30;;;;;;;;;;4945801;28;20043;-82
2023/04/26 07:13:13;;;;;;;0.90;0.70;;;;;;;;;;4950912;28;20035;-82
2023/04/26 07:15:40;;;;;;;0.60;0.40;;;;;;;;;;4950138;28;20402;-80
2023/04/26 07:18:06;;;;;;;0.50;0.40;;;;;;;;;;4943021;28;20051;-80
2023/04/26 07:20:32;;;;;;;1.13;0.30;;;;;;;;;;4944765;28;20483;-80
2023/04/26 07:22:58;;;;;;;0.50;0.50;;;;;;;;;;4947957;28;20029;-80
2023/04/26 07:25:24;;;;;;;1.00;0.60;;;;;;;;;;4949899;28;20023;-79
2023/04/26 07:27:51;;;;;;;0.60;0.40;;;;;;;;;;4949745;28;20039;-80
2023/04/26 07:30:17;;;;;;;0.40;0.40;;;;;;;;;;4945990;28;20331;-79
2023/04/26 07:32:42;;;;;;;0.70;0.70;;;;;;;;;;4941767;28;20495;-79
2023/04/26 07:35:14;;;;;;;0.57;0.50;;;;;;;;;;4950671;28;20138;-79
2023/04/26 07:37:40;;;;;;;1.08;0.68;;;;;;;;;;4953497;28;20375;-81
2023/04/26 07:40:09;;;;;;;0.32;0.32;;;;;;;;;;4948681;28;20086;-79
2023/04/26 07:42:35;;;;;;;0.85;0.55;;;;;;;;;;4948886;28;20505;-79
2023/04/26 07:45:01;;;;;;;2.35;0.80;;;;;;;;;;4948219;28;20078;-80
2023/04/26 07:47:27;;;;;;;0.90;0.47;;;;;;;;;;4943354;28;20054;-79
2023/04/26 07:49:53;;;;;;;1.13;0.70;;;;;;;;;;4946761;28;20608;-80
2023/04/26 07:52:19;;;;;;;0.52;0.38;;;;;;;;;;4931586;28;20031;-78
2023/04/26 07:54:46;;;;;;;0.60;0.52;;;;;;;;;;4944555;28;20081;-79
2023/04/26 07:57:11;;;;;;;0.50;0.30;;;;;;;;;;4944244;28;20035;-77
2023/04/26 07:59:37;;;;;;;0.40;0.40;;;;;;;;;;4942504;28;20042;-82
2023/04/26 08:02:03;;;;;;;0.90;0.50;;;;;;;;;;4941585;28;20023;-80
2023/04/26 08:04:34;;;;;;;1.50;0.52;;;;;;;;;;4946178;28;20412;-76
2023/04/26 08:07:00;;;;;;;0.82;0.82;;;;;;;;;;4944579;28;20030;-81
2023/04/26 08:09:27;;;;;;;0.30;0.30;;;;;;;;;;4944015;28;20031;-86
2023/04/26 08:11:53;;;;;;;0.17;0.17;;;;;;;;;;4949966;28;20558;-84
2023/04/26 08:14:19;;;;;;;0.57;0.57;;;;;;;;;;4933382;28;20099;-84
2023/04/26 08:16:45;;;;;;;0.75;0.60;;;;;;;;;;4938663;28;20027;-86
2023/04/26 08:19:11;;;;;;;0.50;0.43;;;;;;;;;;4946828;28;20026;-84
2023/04/26 08:21:37;;;;;;;0.68;0.50;;;;;;;;;;4947875;28;20035;-84
2023/04/26 08:24:03;;;;;;;0.70;0.60;;;;;;;;;;4949134;28;20130;-88
2023/04/26 08:26:29;;;;;;;1.15;0.70;;;;;;;;;;4940112;28;20051;-83
2023/04/26 08:28:56;;;;;;;0.50;0.50;;;;;;;;;;4943664;28;20055;-90
2023/04/26 08:31:22;;;;;;;0.77;0.60;;;;;;;;;;4949080;28;20129;-86
2023/04/26 08:33:48;;;;;;;2.72;0.30;;;;;;;;;;4946367;28;20027;-82
2023/04/26 08:36:14;;;;;;;0.45;0.40;;;;;;;;;;4945507;28;20031;-85
2023/04/26 08:38:41;;;;;;;3.30;0.60;;;;;;;;;;4947200;28;20434;-85
2023/04/26 08:41:09;;;;;;;2.75;0.47;;;;;;;;;;4943218;28;20027;-85
2023/04/26 08:43:36;;;;;;;1.17;0.68;;;;;;;;;;4941881;28;20561;-84
2023/04/26 08:46:04;;;;;;;0.17;0.17;;;;;;;;;;4939894;28;20157;-82
2023/04/26 08:48:32;;;;;;;0.30;0.25;;;;;;;;;;4927862;28;20042;-83
2023/04/26 08:50:59;;;;;;;3.30;0.88;;;;;;;;;;4945096;28;20040;-83
2023/04/26 08:53:25;;;;;;;2.10;0.55;;;;;;;;;;4946742;28;20039;-82
2023/04/26 08:55:51;;;;;;;0.55;0.50;;;;;;;;;;4959651;28;20111;-83
2023/04/26 08:58:18;;;;;;;0.70;0.50;;;;;;;;;;4949816;28;20028;-84
2023/04/26 09:00:44;;;;;;;1.02;0.70;;;;;;;;;;4947353;28;20035;-84
2023/04/26 09:03:11;;;;;;;0.40;0.40;;;;;;;;;;4932150;29;20102;-83
2023/04/26 09:05:39;;;;;;;0.95;0.57;;;;;;;;;;4930577;29;20051;-82
2023/04/26 09:08:06;;;;;;;0.77;0.60;;;;;;;;;;4952714;28;20031;-82
2023/04/26 09:10:32;;;;;;;0.50;0.45;;;;;;;;;;4952056;28;20517;-82
2023/04/26 09:12:58;;;;;;;0.77;0.55;;;;;;;;;;4950123;28;20031;-82
2023/04/26 09:15:26;;;;;;;0.32;0.28;;;;;;;;;;4941357;28;20020;-83
2023/04/26 09:17:52;;;;;;;1.23;0.43;;;;;;;;;;4947962;28;20031;-83
2023/04/26 09:20:22;;;;;;;0.45;0.32;;;;;;;;;;4958936;28;20035;-82
2023/04/26 09:22:50;;;;;;;0.60;0.60;;;;;;;;;;4943883;28;20530;-84
2023/04/26 09:25:17;;;;;;;0.52;0.40;;;;;;;;;;4954808;28;20124;-84
2023/04/26 09:27:46;;;;;;;1.70;1.02;;;;;;;;;;4954290;28;20027;-83
2023/04/26 09:30:19;;;;;;;0.50;0.45;;;;;;;;;;4948156;29;20059;-87
2023/04/26 09:32:50;;;;;;;0.93;0.65;;;;;;;;;;4947120;28;20462;-80
2023/04/26 09:35:41;;;;;;;1.23;0.77;;;;;;;;;;4942492;28;20106;-83
2023/04/26 09:38:16;;;;;;;3.08;0.65;;;;;;;;;;4942879;28;20110;-82
2023/04/26 09:40:59;;;;;;;0.40;0.40;;;;;;;;;;4948693;28;20371;-81
2023/04/26 09:43:25;;;;;;;0.40;0.40;;;;;;;;;;4914045;28;20050;-83
2023/04/26 09:45:55;;;;;;;1.58;0.77;;;;;;;;;;4946309;28;20505;-82
2023/04/26 09:48:33;;;;;;;0.65;0.55;;;;;;;;;;4950982;28;20023;-83
2023/04/26 09:51:10;;;;;;;1.08;0.65;;;;;;;;;;4948901;28;20063;-82
2023/04/26 09:53:38;;;;;;;1.77;0.60;;;;;;;;;;4950425;28;20074;-82
2023/04/26 09:56:12;;;;;;;1.02;0.73;;;;;;;;;;4949235;28;20027;-82
2023/04/26 09:58:39;;;;;;;1.10;0.50;;;;;;;;;;4949780;28;20031;-82
2023/04/26 10:01:06;;;;;;;1.55;0.80;;;;;;;;;;4950496;28;20043;-83
2023/04/26 10:03:33;;;;;;;1.05;0.70;;;;;;;;;;4949594;28;20023;-81
2023/04/26 10:05:59;;;;;;;0.40;0.40;;;;;;;;;;4944424;28;20066;-82
2023/04/26 10:08:25;;;;;;;1.33;0.82;;;;;;;;;;4949193;28;20039;-82
2023/04/26 10:10:52;;;;;;;1.25;0.80;;;;;;;;;;4950989;28;20027;-83
2023/04/26 10:13:18;;;;;;;1.40;0.52;;;;;;;;;;4948393;28;20020;-83
2023/04/26 10:15:45;;;;;;;1.10;0.50;;;;;;;;;;4950824;28;20023;-83
2023/04/26 10:18:11;;;;;;;0.50;0.45;;;;;;;;;;4949129;28;20057;-82
2023/04/26 10:20:41;;;;;;;0.60;0.50;;;;;;;;;;4950311;28;20707;-82
2023/04/26 10:23:24;;;;;;;0.60;0.60;;;;;;;;;;4938553;29;20055;-83
2023/04/26 10:25:50;;;;;;;1.17;0.40;;;;;;;;;;4948855;29;20027;-83
2023/04/26 10:28:16;;;;;;;4.53;0.68;;;;;;;;;;4939576;29;20130;-82
2023/04/26 10:30:56;;;;;;;0.52;0.52;;;;;;;;;;4947943;28;20486;-82
2023/04/26 10:33:22;;;;;;;0.40;0.40;;;;;;;;;;4946742;28;20501;-82
2023/04/26 10:36:00;;;;;;;1.25;1.05;;;;;;;;;;4949118;28;20402;-83
2023/04/26 10:38:26;;;;;;;0.85;0.70;;;;;;;;;;4947998;28;20028;-84
2023/04/26 10:40:52;;;;;;;0.68;0.60;;;;;;;;;;4948849;28;20035;-83
2023/04/26 10:43:18;;;;;;;1.95;0.88;;;;;;;;;;4949382;28;20469;-83
2023/04/26 10:45:45;;;;;;;0.40;0.40;;;;;;;;;;4950675;28;20031;-83
2023/04/26 10:48:17;;;;;;;0.50;0.50;;;;;;;;;;4947637;29;20035;-83
2023/04/26 10:51:12;;;;;;;0.38;0.38;;;;;;;;;;4949003;29;20035;-83
2023/04/26 10:53:44;;;;;;;0.70;0.45;;;;;;;;;;4950843;29;20038;-83
2023/04/26 10:56:10;;;;;;;0.55;0.43;;;;;;;;;;4948552;28;20019;-83
2023/04/26 10:58:40;;;;;;;0.88;0.60;;;;;;;;;;4948669;28;20462;-84
2023/04/26 11:01:16;;;;;;;0.70;0.70;;;;;;;;;;4949648;29;20437;-83
2023/04/26 11:03:43;;;;;;;0.50;0.50;;;;;;;;;;4947929;28;20071;-82
2023/04/26 11:06:12;;;;;;;0.98;0.60;;;;;;;;;;4947452;28;20051;-82
2023/04/26 11:08:38;;;;;;;0.65;0.50;;;;;;;;;;4948705;28;20027;-82
2023/04/26 11:11:05;;;;;;;2.22;0.70;;;;;;;;;;4949241;28;20113;-82
2023/04/26 11:13:32;;;;;;;0.50;0.50;;;;;;;;;;4949421;28;20027;-83
2023/04/26 11:16:02;;;;;;;0.98;0.70;;;;;;;;;;4945796;29;20066;-83
2023/04/26 11:18:29;;;;;;;1.75;0.80;;;;;;;;;;4946546;28;20445;-80
2023/04/26 11:20:55;;;;;;;1.90;0.70;;;;;;;;;;4946773;28;20031;-81
2023/04/26 11:23:22;;;;;;;0.63;0.60;;;;;;;;;;4947644;28;20513;-82
2023/04/26 11:25:48;;;;;;;1.50;0.43;;;;;;;;;;4946825;28;20547;-83
2023/04/26 11:28:14;;;;;;;0.47;0.47;;;;;;;;;;4932252;29;20035;-77
2023/04/26 11:30:40;;;;;;;1.27;0.95;;;;;;;;;;4948569;28;20556;-85
2023/04/26 11:33:16;;;;;;;0.55;0.55;;;;;;;;;;4949227;28;20043;-83
2023/04/26 11:35:42;;;;;;;0.73;0.70;;;;;;;;;;4949346;28;20027;-81
2023/04/26 11:38:08;;;;;;;1.10;0.70;;;;;;;;;;4949481;28;20556;-77
2023/04/26 11:40:37;;;;;;;3.10;1.00;;;;;;;;;;4942955;28;20047;-82
2023/04/26 11:43:04;;;;;;;4.40;0.98;;;;;;;;;;4919712;29;20031;-80
2023/04/26 11:45:35;;;;;;;1.95;0.93;;;;;;;;;;4946533;28;20047;-80
2023/04/26 11:48:01;;;;;;;1.38;0.52;;;;;;;;;;4945908;28;20037;-78
2023/04/26 11:50:28;;;;;;;1.17;0.82;;;;;;;;;;4946006;28;20043;-81
2023/04/26 11:52:55;;;;;;;2.00;0.90;;;;;;;;;;4940560;28;20095;-81
2023/04/26 11:55:24;;;;;;;0.70;0.70;;;;;;;;;;4944625;28;20023;-81
2023/04/26 11:57:50;;;;;;;4.07;0.90;;;;;;;;;;4944000;29;20058;-81
2023/04/26 12:00:17;;;;;;;1.15;0.50;;;;;;;;;;4938704;28;20035;-81
2023/04/26 12:02:45;;;;;;;2.65;0.75;;;;;;;;;;4950837;28;20067;-81
2023/04/26 12:05:11;;;;;;;0.73;0.60;;;;;;;;;;4941592;28;20457;-81
2023/04/26 12:07:37;;;;;;;1.60;0.80;;;;;;;;;;4950429;28;20035;-81
2023/04/26 12:10:16;;;;;;;1.25;0.93;;;;;;;;;;4948144;28;20137;-81
2023/04/26 12:12:52;;;;;;;1.73;0.95;;;;;;;;;;4946215;28;20262;-82
2023/04/26 12:15:22;;;;;;;1.63;0.75;;;;;;;;;;4943776;28;20035;-81
2023/04/26 12:17:56;;;;;;;0.70;0.65;;;;;;;;;;4947947;28;20503;-83
2023/04/26 12:20:33;;;;;;;1.73;1.00;;;;;;;;;;4948753;28;20047;-81
2023/04/26 12:23:04;;;;;;;4.38;0.73;;;;;;;;;;4949019;28;20035;-82
2023/04/26 12:25:30;;;;;;;1.33;0.70;;;;;;;;;;4950321;28;20027;-83
2023/04/26 12:27:56;;;;;;;0.57;0.57;;;;;;;;;;4947155;28;20122;-82
2023/04/26 12:30:22;;;;;;;0.88;0.70;;;;;;;;;;4950038;28;20038;-80
2023/04/26 12:32:48;;;;;;;0.60;0.60;;;;;;;;;;4944908;28;20028;-81
2023/04/26 12:35:14;;;;;;;0.70;0.60;;;;;;;;;;4948601;28;20031;-81
2023/04/26 12:37:40;;;;;;;0.45;0.45;;;;;;;;;;4945501;28;20020;-82
2023/04/26 12:40:08;;;;;;;0.60;0.60;;;;;;;;;;4947118;28;20027;-81
2023/04/26 12:42:34;;;;;;;1.48;0.70;;;;;;;;;;4943263;28;20133;-78
2023/04/26 12:45:00;;;;;;;0.70;0.70;;;;;;;;;;4933491;29;20565;-81
2023/04/26 12:47:26;;;;;;;0.52;0.50;;;;;;;;;;4948311;28;20027;-81
2023/04/26 12:49:52;;;;;;;0.80;0.60;;;;;;;;;;4949482;28;20046;-78
2023/04/26 12:52:18;;;;;;;0.65;0.60;;;;;;;;;;4945381;28;20027;-81
2023/04/26 12:54:45;;;;;;;1.05;0.60;;;;;;;;;;4949778;28;20086;-77
2023/04/26 12:57:13;;;;;;;0.50;0.50;;;;;;;;;;4948485;28;20026;-78
2023/04/26 12:59:39;;;;;;;1.13;0.65;;;;;;;;;;4950221;28;20110;-77
2023/04/26 13:02:05;;;;;;;0.88;0.80;;;;;;;;;;4943799;28;20110;-78
2023/04/26 13:04:31;;;;;;;0.77;0.60;;;;;;;;;;4942461;28;20050;-77
2023/04/26 13:06:57;;;;;;;0.82;0.70;;;;;;;;;;4939500;28;20035;-77
2023/04/26 13:09:23;;;;;;;2.15;0.93;;;;;;;;;;4940003;28;20086;-76
2023/04/26 13:11:49;;;;;;;0.40;0.40;;;;;;;;;;4941122;28;20117;-77
2023/04/26 13:14:15;;;;;;;0.50;0.50;;;;;;;;;;4942327;28;20792;-76
2023/04/26 13:16:42;;;;;;;1.27;0.75;;;;;;;;;;4948652;28;20078;-77
2023/04/26 13:19:09;;;;;;;0.70;0.50;;;;;;;;;;4945826;28;20110;-77
2023/04/26 13:21:35;;;;;;;0.63;0.52;;;;;;;;;;4939814;28;20498;-77
2023/04/26 13:24:01;;;;;;;2.50;0.90;;;;;;;;;;4947157;28;20512;-77
2023/04/26 13:26:27;;;;;;;1.10;0.68;;;;;;;;;;4939469;28;20019;-77
2023/04/26 13:28:53;;;;;;;1.52;0.55;;;;;;;;;;4946974;28;20445;-76
2023/04/26 13:31:19;;;;;;;1.05;0.80;;;;;;;;;;4947129;28;20478;-80
2023/04/26 13:33:48;;;;;;;0.93;0.60;;;;;;;;;;4939978;28;20549;-76
2023/04/26 13:36:14;;;;;;;0.75;0.73;;;;;;;;;;4940153;28;20107;-77
2023/04/26 13:38:40;;;;;;;3.35;0.60;;;;;;;;;;4946972;28;20035;-78
2023/04/26 13:41:06;;;;;;;0.82;0.60;;;;;;;;;;4947317;28;20038;-77
2023/04/26 13:43:32;;;;;;;0.73;0.57;;;;;;;;;;4941104;28;20031;-77
2023/04/26 13:45:58;;;;;;;0.50;0.50;;;;;;;;;;4945328;28;20128;-78
2023/04/26 13:48:24;;;;;;;0.60;0.57;;;;;;;;;;4939160;28;20043;-78
2023/04/26 13:50:50;;;;;;;0.85;0.82;;;;;;;;;;4951321;28;20034;-77
2023/04/26 13:53:18;;;;;;;2.45;0.80;;;;;;;;;;4941313;28;20446;-78
2023/04/26 13:55:44;;;;;;;1.48;0.98;;;;;;;;;;4948397;28;20019;-78
2023/04/26 13:58:10;;;;;;;0.52;0.52;;;;;;;;;;4949507;28;20023;-78
2023/04/26 14:00:36;;;;;;;0.55;0.55;;;;;;;;;;4939340;28;20060;-77
2023/04/26 14:03:02;;;;;;;1.02;0.60;;;;;;;;;;4950288;28;20032;-77
2023/04/26 14:05:28;;;;;;;1.30;0.90;;;;;;;;;;4949353;28;20050;-78
2023/04/26 14:07:54;;;;;;;1.40;1.02;;;;;;;;;;4952021;28;20031;-77
2023/04/26 14:10:20;;;;;;;1.17;0.75;;;;;;;;;;4941788;28;20034;-77
2023/04/26 14:12:46;;;;;;;0.63;0.50;;;;;;;;;;4947201;28;20035;-78
2023/04/26 14:15:12;;;;;;;0.70;0.60;;;;;;;;;;4949483;28;20038;-78
2023/04/26 14:17:38;;;;;;;2.05;0.70;;;;;;;;;;4947009;28;20027;-78
2023/04/26 14:20:04;;;;;;;0.80;0.52;;;;;;;;;;4945958;28;20046;-77
2023/04/26 14:22:30;;;;;;;1.50;0.70;;;;;;;;;;4943975;28;20177;-78
2023/04/26 14:24:56;;;;;;;0.95;0.60;;;;;;;;;;4943147;28;20030;-77
2023/04/26 14:27:22;;;;;;;2.65;0.80;;;;;;;;;;4950539;28;20705;-77
2023/04/26 14:29:48;;;;;;;2.67;0.77;;;;;;;;;;4937559;29;20032;-78
2023/04/26 14:32:14;;;;;;;1.67;0.73;;;;;;;;;;4950154;28;20427;-78
2023/04/26 14:34:40;;;;;;;0.60;0.55;;;;;;;;;;4947890;28;20410;-77
2023/04/26 14:37:06;;;;;;;0.68;0.60;;;;;;;;;;4950309;28;20027;-77
2023/04/26 14:39:32;;;;;;;0.75;0.65;;;;;;;;;;4948791;28;20020;-78
2023/04/26 14:41:58;;;;;;;0.60;0.60;;;;;;;;;;4951408;28;20038;-78